createdAt,value
2023-04-22T00:00:09.137Z,14.20
2023-04-22T00:02:38.799Z,13.00
2023-04-22T00:05:10.644Z,13.90
2023-04-22T00:07:37.919Z,12.57
2023-04-22T00:10:05.710Z,14.40
2023-04-22T00:12:32.636Z,13.93
2023-04-22T00:14:59.647Z,13.90
2023-04-22T00:17:26.648Z,13.67
2023-04-22T00:19:54.577Z,13.60
2023-04-22T00:22:21.560Z,15.73
2023-04-22T00:24:48.763Z,14.80
2023-04-22T00:27:15.673Z,15.70
2023-04-22T00:29:42.559Z,14.83
2023-04-22T00:32:09.537Z,14.90
2023-04-22T00:34:36.456Z,14.77
2023-04-22T00:37:03.525Z,16.67
2023-04-22T00:39:30.499Z,14.60
2023-04-22T00:41:57.699Z,15.07
2023-04-22T00:44:25.522Z,14.80
2023-04-22T00:46:52.923Z,16.57
2023-04-22T00:49:20.650Z,16.17
2023-04-22T00:51:47.565Z,18.37
2023-04-22T00:54:14.583Z,17.53
2023-04-22T00:56:41.780Z,15.13
2023-04-22T00:59:10.833Z,13.53
2023-04-22T01:01:38.117Z,11.67
2023-04-22T01:04:05.402Z,12.10
2023-04-22T01:06:33.204Z,12.80
2023-04-22T01:09:00.521Z,13.43
2023-04-22T01:11:27.545Z,13.30
2023-04-22T01:13:54.550Z,13.50
2023-04-22T01:16:22.891Z,13.80
2023-04-22T01:18:49.879Z,14.43
2023-04-22T01:21:17.099Z,14.87
2023-04-22T01:23:44.262Z,15.20
2023-04-22T01:26:11.830Z,15.47
2023-04-22T01:28:39.389Z,16.00
2023-04-22T01:31:06.369Z,14.80
2023-04-22T01:33:34.310Z,15.80
2023-04-22T01:36:01.401Z,14.77
2023-04-22T01:38:28.959Z,14.73
2023-04-22T01:40:56.129Z,14.73
2023-04-22T01:43:23.702Z,16.67
2023-04-22T01:45:50.703Z,16.33
2023-04-22T01:48:17.797Z,16.63
2023-04-22T01:50:45.672Z,16.53
2023-04-22T01:53:13.216Z,15.43
2023-04-22T01:55:40.316Z,16.97
2023-04-22T01:58:07.346Z,14.47
2023-04-22T02:00:34.495Z,15.00
2023-04-22T02:03:01.719Z,15.13
2023-04-22T02:05:28.887Z,15.60
2023-04-22T02:07:55.808Z,14.27
2023-04-22T02:10:22.786Z,14.50
2023-04-22T02:12:49.733Z,14.70
2023-04-22T02:15:16.723Z,15.57
2023-04-22T02:17:44.255Z,16.23
2023-04-22T02:20:12.116Z,17.63
2023-04-22T02:22:41.520Z,16.73
2023-04-22T02:25:10.928Z,16.13
2023-04-22T02:27:39.336Z,14.23
2023-04-22T02:30:07.644Z,13.83
2023-04-22T02:32:36.885Z,14.70
2023-04-22T02:35:05.284Z,13.97
2023-04-22T02:37:32.513Z,14.00
2023-04-22T02:39:59.461Z,15.53
2023-04-22T02:42:26.417Z,16.67
2023-04-22T02:44:53.523Z,14.70
2023-04-22T02:47:21.756Z,16.67
2023-04-22T02:49:48.818Z,16.37
2023-04-22T02:52:15.745Z,17.97
2023-04-22T02:54:42.806Z,17.20
2023-04-22T02:57:09.816Z,18.30
2023-04-22T02:59:37.672Z,16.77
2023-04-22T03:02:06.925Z,17.07
2023-04-22T03:04:34.256Z,18.37
2023-04-22T03:07:01.377Z,16.07
2023-04-22T03:09:28.431Z,16.97
2023-04-22T03:11:56.007Z,17.90
2023-04-22T03:14:23.067Z,17.27
2023-04-22T03:16:50.308Z,16.70
2023-04-22T03:19:17.263Z,15.00
2023-04-22T03:21:44.227Z,18.00
2023-04-22T03:24:11.224Z,18.97
2023-04-22T03:26:38.263Z,17.53
2023-04-22T03:29:05.425Z,17.40
2023-04-22T03:31:32.395Z,19.40
2023-04-22T03:33:59.678Z,18.93
2023-04-22T03:36:27.518Z,19.90
2023-04-22T03:38:54.526Z,18.93
2023-04-22T03:41:21.517Z,19.67
2023-04-22T03:43:48.548Z,20.30
2023-04-22T03:46:16.983Z,21.93
2023-04-22T03:48:44.000Z,21.03
2023-04-22T03:51:11.032Z,18.33
2023-04-22T03:53:38.188Z,18.03
2023-04-22T03:56:05.656Z,17.57
2023-04-22T03:58:33.135Z,18.37
2023-04-22T04:01:00.182Z,16.67
2023-04-22T04:03:30.181Z,17.10
2023-04-22T04:05:58.253Z,19.17
2023-04-22T04:08:25.715Z,18.07
2023-04-22T04:10:52.743Z,17.53
2023-04-22T04:13:19.671Z,17.30
2023-04-22T04:15:47.288Z,15.27
2023-04-22T04:18:15.000Z,16.10
2023-04-22T04:20:42.019Z,15.03
2023-04-22T04:23:10.039Z,14.17
2023-04-22T04:25:38.929Z,16.17
2023-04-22T04:28:12.125Z,17.37
2023-04-22T04:30:41.580Z,17.93
2023-04-22T04:33:08.809Z,17.03
2023-04-22T04:35:39.617Z,16.97
2023-04-22T04:38:06.701Z,16.63
2023-04-22T04:40:35.040Z,17.27
2023-04-22T04:43:04.318Z,18.20
2023-04-22T04:45:31.356Z,18.20
2023-04-22T04:47:58.481Z,19.40
2023-04-22T04:50:27.850Z,17.83
2023-04-22T04:52:55.290Z,17.23
2023-04-22T04:55:22.317Z,18.00
2023-04-22T04:57:49.278Z,17.73
2023-04-22T05:00:16.513Z,18.27
2023-04-22T05:02:43.753Z,17.50
2023-04-22T05:05:12.032Z,14.57
2023-04-22T05:07:41.854Z,12.97
2023-04-22T05:10:10.745Z,14.17
2023-04-22T05:12:37.682Z,14.17
2023-04-22T05:15:05.535Z,14.27
2023-04-22T05:17:32.508Z,16.00
2023-04-22T05:19:59.476Z,16.97
2023-04-22T05:22:26.482Z,16.77
2023-04-22T05:24:53.415Z,18.20
2023-04-22T05:27:20.603Z,17.63
2023-04-22T05:29:47.611Z,19.90
2023-04-22T05:32:14.619Z,20.53
2023-04-22T05:34:43.826Z,20.77
2023-04-22T05:37:11.038Z,19.80
2023-04-22T05:39:38.125Z,20.77
2023-04-22T05:42:05.434Z,23.50
2023-04-22T05:44:32.399Z,21.63
2023-04-22T05:46:59.416Z,21.63
2023-04-22T05:49:27.030Z,23.73
2023-04-22T05:51:53.935Z,23.27
2023-04-22T05:54:20.873Z,21.47
2023-04-22T05:56:47.808Z,21.13
2023-04-22T05:59:14.833Z,21.10
2023-04-22T06:01:42.393Z,19.90
2023-04-22T06:04:12.219Z,21.90
2023-04-22T06:06:39.812Z,21.37
2023-04-22T06:09:07.540Z,19.77
2023-04-22T06:11:34.535Z,23.33
2023-04-22T06:14:01.541Z,23.60
2023-04-22T06:16:28.621Z,22.77
2023-04-22T06:18:55.562Z,22.37
2023-04-22T06:21:25.499Z,22.53
2023-04-22T06:23:52.441Z,23.03
2023-04-22T06:26:19.626Z,22.77
2023-04-22T06:28:46.558Z,22.43
2023-04-22T06:31:13.510Z,23.03
2023-04-22T06:33:40.463Z,22.27
2023-04-22T06:36:07.773Z,22.83
2023-04-22T06:38:34.741Z,24.20
2023-04-22T06:41:01.810Z,23.80
2023-04-22T06:43:28.716Z,22.47
2023-04-22T06:45:55.853Z,23.30
2023-04-22T06:48:22.857Z,24.30
2023-04-22T06:50:49.791Z,24.77
2023-04-22T06:53:16.809Z,24.83
2023-04-22T06:55:43.821Z,23.97
2023-04-22T06:58:10.731Z,24.90
2023-04-22T07:00:37.652Z,25.07
2023-04-22T07:03:04.632Z,25.50
2023-04-22T07:05:32.160Z,24.60
2023-04-22T07:07:59.061Z,24.50
2023-04-22T07:10:26.151Z,24.27
2023-04-22T07:12:53.199Z,24.70
2023-04-22T07:15:20.296Z,26.67
2023-04-22T07:17:47.409Z,27.27
2023-04-22T07:20:14.353Z,27.73
2023-04-22T07:22:41.276Z,27.47
2023-04-22T07:25:08.698Z,29.23
2023-04-22T07:27:38.955Z,28.97
2023-04-22T07:30:11.696Z,28.23
2023-04-22T07:32:38.692Z,28.53
2023-04-22T07:35:06.422Z,30.67
2023-04-22T07:37:33.356Z,30.53
2023-04-22T07:40:00.253Z,29.90
2023-04-22T07:42:27.294Z,30.47
2023-04-22T07:44:54.264Z,30.50
2023-04-22T07:47:21.410Z,30.43
2023-04-22T07:49:48.483Z,30.43
2023-04-22T07:52:15.406Z,31.63
2023-04-22T07:54:42.490Z,31.40
2023-04-22T07:57:09.390Z,31.43
2023-04-22T07:59:36.301Z,32.73
2023-04-22T08:02:03.305Z,31.50
2023-04-22T08:04:30.415Z,29.80
2023-04-22T08:06:57.518Z,30.40
2023-04-22T08:09:24.585Z,27.97
2023-04-22T08:11:53.342Z,28.60
2023-04-22T08:14:20.258Z,26.20
2023-04-22T08:16:47.152Z,25.43
2023-04-22T08:19:14.080Z,25.80
2023-04-22T08:21:41.000Z,24.67
2023-04-22T08:24:08.017Z,23.70
2023-04-22T08:26:36.336Z,24.30
2023-04-22T08:29:04.540Z,23.10
2023-04-22T08:31:31.758Z,23.43
2023-04-22T08:33:58.710Z,23.57
2023-04-22T08:36:27.692Z,22.77
2023-04-22T08:38:54.916Z,23.47
2023-04-22T08:41:24.552Z,22.53
2023-04-22T08:43:53.855Z,23.80
2023-04-22T08:46:21.915Z,24.00
2023-04-22T08:48:50.542Z,25.33
2023-04-22T08:51:18.430Z,25.30
2023-04-22T08:53:45.732Z,24.00
2023-04-22T08:56:16.439Z,25.93
2023-04-22T08:58:44.025Z,25.70
2023-04-22T09:01:11.526Z,25.47
2023-04-22T09:03:40.972Z,24.80
2023-04-22T09:06:10.764Z,25.77
2023-04-22T09:08:38.692Z,26.77
2023-04-22T09:11:05.703Z,25.73
2023-04-22T09:13:34.631Z,24.47
2023-04-22T09:16:01.825Z,25.10
2023-04-22T09:18:28.841Z,23.03
2023-04-22T09:20:57.285Z,23.37
2023-04-22T09:23:24.947Z,22.77
2023-04-22T09:25:51.981Z,22.00
2023-04-22T09:28:19.751Z,23.93
2023-04-22T09:30:47.494Z,22.73
2023-04-22T09:33:15.688Z,23.73
2023-04-22T09:35:44.045Z,23.23
2023-04-22T09:38:12.411Z,23.37
2023-04-22T09:40:44.545Z,22.10
2023-04-22T09:43:11.738Z,23.00
2023-04-22T09:45:42.051Z,24.10
2023-04-22T09:48:15.454Z,23.83
2023-04-22T09:50:51.898Z,24.83
2023-04-22T09:53:21.594Z,24.03
2023-04-22T09:55:54.417Z,25.27
2023-04-22T09:58:23.826Z,24.70
2023-04-22T10:00:54.986Z,25.27
2023-04-22T10:03:22.064Z,25.70
2023-04-22T10:05:49.188Z,24.87
2023-04-22T10:08:17.601Z,24.90
2023-04-22T10:10:45.884Z,24.20
2023-04-22T10:13:12.926Z,24.40
2023-04-22T10:15:53.304Z,24.03
2023-04-22T10:18:26.985Z,22.07
2023-04-22T10:20:56.416Z,23.50
2023-04-22T10:23:25.167Z,24.63
2023-04-22T10:25:56.596Z,26.03
2023-04-22T10:28:28.593Z,24.03
2023-04-22T10:30:55.654Z,24.47
2023-04-22T10:33:27.713Z,24.33
2023-04-22T10:36:17.985Z,23.47
2023-04-22T10:38:51.042Z,23.00
2023-04-22T10:41:24.218Z,23.47
2023-04-22T10:44:00.402Z,23.20
2023-04-22T10:46:34.774Z,22.50
2023-04-22T10:49:20.588Z,20.40
2023-04-22T10:51:52.432Z,23.20
2023-04-22T10:54:31.577Z,21.57
2023-04-22T10:57:15.459Z,21.63
2023-04-22T10:59:52.058Z,24.33
2023-04-22T11:02:20.921Z,23.27
2023-04-22T11:04:48.818Z,22.83
2023-04-22T11:07:30.160Z,25.17
2023-04-22T11:10:07.425Z,22.77
2023-04-22T11:12:38.408Z,22.70
2023-04-22T11:15:15.819Z,19.80
2023-04-22T11:17:46.270Z,19.07
2023-04-22T11:20:17.987Z,20.27
2023-04-22T11:22:52.560Z,20.33
2023-04-22T11:25:20.531Z,20.20
2023-04-22T11:27:48.374Z,19.93
2023-04-22T11:30:27.085Z,22.07
2023-04-22T11:32:59.995Z,20.50
2023-04-22T11:35:32.193Z,19.40
2023-04-22T11:38:08.746Z,18.37
2023-04-22T11:40:45.120Z,23.27
2023-04-22T11:43:13.669Z,17.63
2023-04-22T11:45:41.250Z,17.10
2023-04-22T11:48:11.903Z,16.60
2023-04-22T11:50:42.415Z,15.13
2023-04-22T11:53:16.417Z,13.70
2023-04-22T11:55:45.696Z,13.47
2023-04-22T11:58:16.714Z,13.07
2023-04-22T12:00:50.351Z,13.40
2023-04-22T12:03:25.046Z,12.23
2023-04-22T12:05:54.317Z,11.20
2023-04-22T12:08:30.215Z,11.07
2023-04-22T12:11:01.273Z,11.60
2023-04-22T12:13:41.584Z,11.53
2023-04-22T12:16:13.429Z,10.57
2023-04-22T12:18:48.108Z,11.00
2023-04-22T12:21:18.766Z,10.87
2023-04-22T12:23:47.713Z,11.53
2023-04-22T12:26:16.455Z,11.30
2023-04-22T12:28:45.231Z,11.00
2023-04-22T12:31:14.153Z,9.77
2023-04-22T12:33:41.939Z,10.10
2023-04-22T12:36:09.514Z,10.50
2023-04-22T12:38:37.155Z,11.10
2023-04-22T12:41:06.403Z,9.50
2023-04-22T12:43:36.739Z,10.20
2023-04-22T12:46:08.169Z,10.67
2023-04-22T12:48:38.915Z,10.70
2023-04-22T12:51:09.254Z,10.37
2023-04-22T12:53:36.225Z,10.00
2023-04-22T12:56:03.254Z,9.93
2023-04-22T12:58:30.281Z,10.10
2023-04-22T13:00:57.214Z,10.67
2023-04-22T13:03:24.406Z,10.17
2023-04-22T13:05:52.394Z,11.07
2023-04-22T13:08:19.515Z,11.27
2023-04-22T13:10:46.448Z,10.60
2023-04-22T13:13:18.248Z,9.03
2023-04-22T13:15:47.841Z,8.63
2023-04-22T13:18:16.848Z,9.73
2023-04-22T13:20:44.163Z,10.67
2023-04-22T13:23:11.390Z,11.40
2023-04-22T13:25:38.352Z,12.60
2023-04-22T13:28:05.837Z,13.13
2023-04-22T13:30:33.467Z,13.40
2023-04-22T13:33:00.501Z,12.37
2023-04-22T13:35:27.607Z,12.40
2023-04-22T13:37:54.564Z,13.20
2023-04-22T13:40:21.615Z,15.30
2023-04-22T13:42:48.711Z,14.13
2023-04-22T13:45:19.101Z,15.37
2023-04-22T13:47:46.187Z,15.73
2023-04-22T13:50:13.145Z,17.20
2023-04-22T13:52:40.106Z,16.10
2023-04-22T13:55:07.943Z,15.70
2023-04-22T13:57:34.923Z,14.37
2023-04-22T14:00:01.913Z,15.60
2023-04-22T14:02:28.921Z,15.23
2023-04-22T14:04:55.912Z,15.60
2023-04-22T14:07:22.842Z,15.77
2023-04-22T14:09:49.793Z,15.47
2023-04-22T14:12:17.159Z,15.40
2023-04-22T14:14:44.144Z,14.67
2023-04-22T14:17:11.439Z,14.33
2023-04-22T14:19:39.758Z,14.37
2023-04-22T14:22:06.944Z,13.80
2023-04-22T14:24:34.042Z,13.90
2023-04-22T14:27:04.044Z,12.90
2023-04-22T14:29:31.901Z,12.50
2023-04-22T14:31:59.493Z,12.60
2023-04-22T14:34:27.326Z,12.23
2023-04-22T14:36:57.203Z,12.53
2023-04-22T14:39:24.165Z,12.67
2023-04-22T14:41:51.608Z,13.23
2023-04-22T14:44:18.675Z,12.90
2023-04-22T14:46:45.730Z,12.77
2023-04-22T14:49:12.672Z,13.00
2023-04-22T14:51:39.863Z,12.93
2023-04-22T14:54:07.005Z,12.82
2023-04-22T14:56:33.970Z,12.57
2023-04-22T14:59:01.107Z,12.73
2023-04-22T15:01:28.078Z,12.73
2023-04-22T15:03:55.154Z,12.77
2023-04-22T15:06:23.137Z,12.80
2023-04-22T15:08:51.776Z,12.97
2023-04-22T15:11:18.976Z,14.23
2023-04-22T15:13:46.112Z,13.50
2023-04-22T15:16:13.620Z,14.53
2023-04-22T15:18:40.672Z,14.77
2023-04-22T15:21:10.226Z,14.13
2023-04-22T15:23:37.268Z,14.50
2023-04-22T15:26:04.334Z,14.37
2023-04-22T15:28:31.415Z,14.97
2023-04-22T15:31:01.366Z,14.10
2023-04-22T15:33:28.274Z,13.53
2023-04-22T15:35:57.434Z,13.03
2023-04-22T15:38:24.745Z,14.97
2023-04-22T15:40:51.869Z,13.73
2023-04-22T15:43:18.759Z,14.47
2023-04-22T15:45:45.721Z,14.23
2023-04-22T15:48:12.653Z,14.50
2023-04-22T15:50:40.803Z,14.00
2023-04-22T15:53:07.781Z,15.53
2023-04-22T15:55:34.689Z,15.33
2023-04-22T15:58:02.853Z,16.37
2023-04-22T16:00:29.786Z,15.90
2023-04-22T16:02:56.972Z,14.93
2023-04-22T16:05:25.069Z,15.17
2023-04-22T16:07:53.626Z,14.93
2023-04-22T16:10:21.346Z,15.83
2023-04-22T16:12:49.017Z,16.27
2023-04-22T16:15:16.707Z,15.67
2023-04-22T16:17:44.368Z,15.60
2023-04-22T16:20:13.680Z,14.83
2023-04-22T16:22:40.607Z,14.27
2023-04-22T16:25:08.996Z,15.17
2023-04-22T16:27:36.069Z,15.00
2023-04-22T16:30:03.289Z,15.60
2023-04-22T16:32:30.355Z,15.10
2023-04-22T16:34:57.331Z,14.80
2023-04-22T16:37:25.766Z,15.30
2023-04-22T16:39:53.009Z,14.67
2023-04-22T16:42:19.932Z,15.13
2023-04-22T16:44:46.862Z,14.70
2023-04-22T16:47:13.787Z,14.67
2023-04-22T16:49:41.085Z,15.87
2023-04-22T16:52:08.232Z,16.20
2023-04-22T16:54:35.150Z,15.23
2023-04-22T16:57:02.843Z,15.87
2023-04-22T16:59:29.954Z,16.10
2023-04-22T17:01:57.360Z,16.83
2023-04-22T17:04:24.530Z,16.40
2023-04-22T17:06:51.605Z,17.00
2023-04-22T17:09:18.771Z,16.50
2023-04-22T17:11:45.725Z,17.43
2023-04-22T17:14:12.734Z,16.87
2023-04-22T17:16:39.868Z,16.20
2023-04-22T17:19:07.716Z,17.17
2023-04-22T17:21:34.928Z,16.47
2023-04-22T17:24:03.923Z,17.50
2023-04-22T17:26:30.931Z,17.80
2023-04-22T17:28:57.872Z,17.00
2023-04-22T17:31:25.160Z,16.65
2023-04-22T17:33:52.168Z,17.90
2023-04-22T17:36:20.175Z,18.00
2023-04-22T17:38:49.714Z,17.60
2023-04-22T17:41:18.498Z,18.10
2023-04-22T17:43:45.500Z,18.63
2023-04-22T17:46:12.462Z,19.30
2023-04-22T17:48:40.121Z,22.93
2023-04-22T17:51:07.229Z,21.53
2023-04-22T17:53:34.621Z,19.90
2023-04-22T17:56:01.659Z,20.77
2023-04-22T17:58:28.633Z,19.57
2023-04-22T18:00:56.319Z,19.00
2023-04-22T18:03:23.446Z,18.10
2023-04-22T18:05:50.591Z,19.10
2023-04-22T18:08:17.962Z,18.87
2023-04-22T18:10:48.476Z,20.20
2023-04-22T18:13:15.836Z,19.87
2023-04-22T18:15:43.053Z,18.63
2023-04-22T18:18:10.163Z,18.87
2023-04-22T18:20:37.263Z,18.77
2023-04-22T18:23:04.277Z,17.63
2023-04-22T18:25:31.329Z,19.27
2023-04-22T18:27:58.380Z,19.73
2023-04-22T18:30:25.562Z,18.67
2023-04-22T18:32:52.856Z,19.13
2023-04-22T18:35:20.283Z,18.63
2023-04-22T18:37:47.833Z,19.50
2023-04-22T18:40:14.835Z,20.80
2023-04-22T18:42:44.842Z,19.27
2023-04-22T18:45:12.506Z,18.10
2023-04-22T18:47:39.615Z,19.10
2023-04-22T18:50:07.672Z,21.00
2023-04-22T18:52:34.775Z,18.30
2023-04-22T18:55:01.850Z,19.60
2023-04-22T18:57:30.641Z,18.90
2023-04-22T18:59:57.875Z,18.20
2023-04-22T19:02:24.857Z,19.60
2023-04-22T19:04:54.120Z,18.53
2023-04-22T19:07:21.199Z,18.13
2023-04-22T19:09:48.153Z,18.63
2023-04-22T19:12:16.597Z,18.43
2023-04-22T19:14:43.870Z,17.60
2023-04-22T19:17:11.114Z,18.43
2023-04-22T19:19:38.198Z,20.00
2023-04-22T19:22:05.497Z,19.57
2023-04-22T19:24:35.068Z,21.77
2023-04-22T19:27:02.882Z,21.33
2023-04-22T19:29:30.133Z,21.03
2023-04-22T19:31:57.368Z,20.13
2023-04-22T19:34:24.456Z,21.37
2023-04-22T19:36:51.434Z,20.80
2023-04-22T19:39:18.352Z,19.97
2023-04-22T19:41:45.287Z,20.60
2023-04-22T19:44:12.522Z,20.87
2023-04-22T19:46:39.555Z,20.83
2023-04-22T19:49:07.170Z,20.63
2023-04-22T19:51:35.091Z,20.67
2023-04-22T19:54:03.067Z,20.57
2023-04-22T19:56:30.196Z,21.43
2023-04-22T19:58:57.603Z,22.03
2023-04-22T20:01:24.990Z,21.93
2023-04-22T20:03:52.996Z,21.40
2023-04-22T20:06:22.866Z,21.20
2023-04-22T20:08:53.612Z,21.60
2023-04-22T20:11:26.379Z,21.23
2023-04-22T20:13:53.965Z,20.87
2023-04-22T20:16:21.876Z,20.83
2023-04-22T20:18:50.624Z,19.87
2023-04-22T20:21:19.440Z,20.67
2023-04-22T20:23:47.959Z,20.50
2023-04-22T20:26:19.990Z,19.90
2023-04-22T20:28:49.843Z,19.20
2023-04-22T20:31:22.452Z,19.83
2023-04-22T20:33:52.568Z,19.90
2023-04-22T20:36:24.086Z,19.47
2023-04-22T20:38:54.873Z,19.00
2023-04-22T20:41:24.623Z,18.43
2023-04-22T20:43:52.479Z,19.50
2023-04-22T20:46:22.715Z,20.13
2023-04-22T20:48:49.949Z,19.80
2023-04-22T20:51:17.025Z,19.53
2023-04-22T20:53:45.312Z,18.80
2023-04-22T20:56:12.455Z,19.23
2023-04-22T20:58:39.376Z,18.90
2023-04-22T21:01:09.019Z,18.03
2023-04-22T21:03:39.383Z,16.93
2023-04-22T21:06:08.748Z,17.10
2023-04-22T21:08:36.837Z,17.70
2023-04-22T21:11:04.120Z,15.87
2023-04-22T21:13:31.356Z,18.10
2023-04-22T21:16:02.914Z,17.17
2023-04-22T21:18:33.163Z,17.20
2023-04-22T21:21:03.565Z,17.83
2023-04-22T21:23:31.406Z,17.37
2023-04-22T21:26:01.820Z,17.13
2023-04-22T21:28:31.651Z,17.97
2023-04-22T21:30:59.058Z,17.07
2023-04-22T21:33:26.193Z,17.83
2023-04-22T21:35:53.289Z,18.23
2023-04-22T21:38:20.270Z,18.83
2023-04-22T21:40:47.798Z,18.17
2023-04-22T21:43:14.753Z,18.03
2023-04-22T21:45:42.216Z,19.17
2023-04-22T21:48:09.169Z,18.47
2023-04-22T21:50:36.578Z,18.90
2023-04-22T21:53:03.679Z,19.60
2023-04-22T21:55:30.655Z,18.90
2023-04-22T21:57:58.167Z,18.87
2023-04-22T22:00:25.269Z,19.57
2023-04-22T22:02:53.319Z,19.13
2023-04-22T22:05:20.780Z,19.87
2023-04-22T22:07:48.893Z,19.50
2023-04-22T22:10:22.483Z,20.30
2023-04-22T22:12:50.113Z,18.50
2023-04-22T22:15:21.074Z,19.77
2023-04-22T22:17:48.096Z,18.37
2023-04-22T22:20:18.187Z,20.30
2023-04-22T22:22:45.659Z,20.20
2023-04-22T22:25:15.617Z,20.27
2023-04-22T22:27:49.657Z,20.43
2023-04-22T22:30:21.601Z,21.50
2023-04-22T22:32:49.608Z,20.93
2023-04-22T22:35:16.665Z,21.03
2023-04-22T22:37:44.667Z,22.17
2023-04-22T22:40:12.328Z,21.50
2023-04-22T22:42:39.242Z,21.00
2023-04-22T22:45:06.941Z,21.03
2023-04-22T22:47:35.343Z,21.20
2023-04-22T22:50:02.492Z,21.77
2023-04-22T22:52:29.520Z,20.73
2023-04-22T22:54:56.425Z,20.47
2023-04-22T22:57:23.514Z,19.37
2023-04-22T22:59:51.759Z,20.70
2023-04-22T23:02:18.850Z,19.87
2023-04-22T23:04:46.112Z,20.27
2023-04-22T23:07:14.682Z,19.57
2023-04-22T23:09:41.728Z,19.50
2023-04-22T23:12:08.627Z,18.87
2023-04-22T23:14:36.601Z,19.50
2023-04-22T23:17:03.714Z,18.43
2023-04-22T23:19:31.886Z,19.93
2023-04-22T23:21:59.164Z,20.33
2023-04-22T23:24:26.636Z,19.20
2023-04-22T23:26:53.866Z,19.63
2023-04-22T23:29:21.409Z,20.80
2023-04-22T23:31:51.655Z,21.77
2023-04-22T23:34:23.043Z,21.20
2023-04-22T23:36:50.692Z,20.43
2023-04-22T23:39:17.783Z,21.60
2023-04-22T23:41:44.997Z,20.27
2023-04-22T23:44:11.970Z,20.80
2023-04-22T23:46:39.347Z,20.13
2023-04-22T23:49:07.184Z,20.93
2023-04-22T23:51:35.113Z,19.83
2023-04-22T23:54:02.034Z,21.03
2023-04-22T23:56:29.531Z,20.93
2023-04-22T23:58:57.174Z,19.53
